Time;durP1;ratioP1;P1;durP2;ratioP2;P2;SDS_P1;SDS_P2;PMS_P1;PMS_P2;Temp;Humidity;BMP_temperature;BMP_pressure;BME280_temperature;BME280_humidity;BME280_pressure;Samples;Min_cycle;Max_cycle;Signal;HPM_P1;HPM_P2
2023/06/15 00:01:51;;;;;;;5.13;4.20;;;;;;;16.57;59.11;101239.56;4993023;28;20938;-69
2023/06/15 00:04:21;;;;;;;6.50;5.77;;;;;;;16.67;58.87;101239.84;4990913;28;20408;-69
2023/06/15 00:06:50;;;;;;;8.23;3.63;;;;;;;16.52;59.30;101242.16;4992700;28;20512;-68
2023/06/15 00:09:21;;;;;;;7.03;4.30;;;;;;;16.58;59.12;101235.81;4992423;28;20405;-68
2023/06/15 00:11:50;;;;;;;4.77;4.23;;;;;;;16.42;59.67;101231.78;4991771;28;20430;-68
2023/06/15 00:14:19;;;;;;;5.67;4.33;;;;;;;16.44;59.76;101228.84;4992701;28;20537;-69
2023/06/15 00:16:52;;;;;;;8.13;4.73;;;;;;;16.37;59.98;101237.13;4991678;28;20448;-69
2023/06/15 00:19:21;;;;;;;7.17;4.87;;;;;;;16.36;60.15;101237.38;4993251;28;20469;-70
2023/06/15 00:21:53;;;;;;;6.50;3.90;;;;;;;16.30;60.52;101241.03;4993367;28;20413;-68
2023/06/15 00:24:24;;;;;;;7.83;4.70;;;;;;;16.22;60.64;101241.31;4993514;28;20435;-69
2023/06/15 00:26:53;;;;;;;5.60;3.97;;;;;;;16.37;60.32;101234.38;4993283;28;20461;-69
2023/06/15 00:29:22;;;;;;;5.20;4.10;;;;;;;16.19;60.99;101236.34;4992517;28;20503;-69
2023/06/15 00:31:51;;;;;;;7.20;4.70;;;;;;;16.07;61.48;101230.84;4992568;28;20416;-69
2023/06/15 00:34:20;;;;;;;8.23;4.00;;;;;;;16.03;61.68;101233.16;4991178;28;20677;-69
2023/06/15 00:36:50;;;;;;;4.43;3.63;;;;;;;16.03;61.92;101227.72;4991342;28;20443;-69
2023/06/15 00:39:19;;;;;;;6.90;4.77;;;;;;;15.88;62.46;101230.00;4992796;28;20432;-70
2023/06/15 00:41:50;;;;;;;5.93;4.57;;;;;;;15.84;62.65;101234.25;4993326;28;20431;-70
2023/06/15 00:44:19;;;;;;;7.47;4.17;;;;;;;15.79;62.93;101231.38;4989120;28;20405;-70
2023/06/15 00:46:49;;;;;;;6.07;5.27;;;;;;;15.70;63.40;101227.28;4992711;28;20439;-70
2023/06/15 00:49:18;;;;;;;7.07;3.93;;;;;;;15.72;63.35;101227.91;4991347;28;20426;-69
2023/06/15 00:51:48;;;;;;;6.23;5.20;;;;;;;15.57;63.97;101230.19;4991161;28;20453;-70
2023/06/15 00:54:21;;;;;;;5.70;4.13;;;;;;;15.61;63.90;101234.13;4992314;28;20405;-69
2023/06/15 00:56:53;;;;;;;7.90;4.20;;;;;;;15.50;64.38;101226.66;5024454;28;20964;-69
2023/06/15 00:59:22;;;;;;;4.70;4.00;;;;;;;15.54;64.35;101228.72;4992578;28;20447;-68
2023/06/15 01:01:54;;;;;;;5.00;4.50;;;;;;;15.44;64.78;101233.03;4986965;28;20436;-69
2023/06/15 01:04:25;;;;;;;4.87;4.20;;;;;;;15.39;64.97;101236.44;4990098;28;20434;-69
2023/06/15 01:06:57;;;;;;;7.43;4.23;;;;;;;15.31;65.35;101231.25;4992617;28;20794;-69
2023/06/15 01:09:28;;;;;;;6.37;4.67;;;;;;;15.23;65.63;101240.56;4985924;28;20813;-69
2023/06/15 01:12:01;;;;;;;10.10;4.10;;;;;;;15.22;65.84;101238.88;4992346;28;20400;-69
2023/06/15 01:14:31;;;;;;;7.47;4.77;;;;;;;15.09;66.44;101236.31;4986601;28;20457;-70
2023/06/15 01:17:05;;;;;;;9.83;5.17;;;;;;;15.05;66.56;101236.97;4990771;28;20886;-68
2023/06/15 01:19:53;;;;;;;5.70;4.00;;;;;;;14.97;67.04;101238.06;4992153;28;20469;-69
2023/06/15 01:22:35;;;;;;;4.20;3.80;;;;;;;14.87;67.68;101239.63;4992106;28;20496;-69
2023/06/15 01:25:10;;;;;;;3.93;3.53;;;;;;;14.92;67.56;101239.78;4994307;28;20491;-68
2023/06/15 01:27:42;;;;;;;4.67;4.20;;;;;;;14.89;67.58;101237.50;4993837;28;20870;-68
2023/06/15 01:30:13;;;;;;;5.57;3.27;;;;;;;14.79;67.81;101235.28;4995852;28;20400;-70
2023/06/15 01:32:42;;;;;;;5.63;4.40;;;;;;;14.70;68.53;101231.16;5006636;28;20511;-67
2023/06/15 01:35:11;;;;;;;6.40;4.67;;;;;;;14.72;68.56;101239.94;4995207;28;20440;-68
2023/06/15 01:37:40;;;;;;;5.33;4.77;;;;;;;14.78;68.98;101229.00;4995037;28;20468;-68
2023/06/15 01:40:11;;;;;;;4.90;4.40;;;;;;;14.82;68.13;101234.00;4995542;28;20442;-67
2023/06/15 01:42:43;;;;;;;4.20;3.80;;;;;;;14.62;68.98;101234.19;5005897;28;20448;-68
2023/06/15 01:45:14;;;;;;;5.83;4.17;;;;;;;14.59;69.31;101232.72;4995371;28;20420;-68
2023/06/15 01:47:46;;;;;;;5.60;4.60;;;;;;;14.47;69.76;101225.47;4992166;28;20450;-68
2023/06/15 01:50:16;;;;;;;7.10;3.50;;;;;;;14.53;69.52;101230.84;4995163;28;20825;-69
2023/06/15 01:52:45;;;;;;;5.60;4.73;;;;;;;14.44;70.06;101223.16;4992288;28;20491;-70
2023/06/15 01:55:14;;;;;;;7.57;4.23;;;;;;;14.38;70.22;101221.34;4995543;28;20426;-69
2023/06/15 01:57:47;;;;;;;5.60;4.20;;;;;;;14.28;70.85;101217.16;4989070;28;20926;-67
2023/06/15 02:00:16;;;;;;;7.00;4.67;;;;;;;14.26;71.02;101219.28;4993559;28;20440;-69
2023/06/15 02:02:46;;;;;;;4.83;4.43;;;;;;;14.29;70.78;101216.13;4986034;28;20463;-68
2023/06/15 02:05:15;;;;;;;5.57;3.60;;;;;;;14.26;71.21;101219.28;4995010;28;20438;-68
2023/06/15 02:07:45;;;;;;;7.33;4.53;;;;;;;14.38;71.00;101215.91;4993728;28;20454;-69
2023/06/15 02:10:15;;;;;;;8.40;4.93;;;;;;;14.43;70.30;101216.06;4993904;28;20491;-69
2023/06/15 02:12:46;;;;;;;4.50;4.10;;;;;;;14.38;71.32;101215.91;4995634;28;20442;-70
2023/06/15 02:15:19;;;;;;;5.50;4.70;;;;;;;14.41;70.39;101220.91;4997228;28;20409;-68
2023/06/15 02:17:49;;;;;;;5.43;4.93;;;;;;;14.32;70.88;101207.53;5001267;28;20799;-69
2023/06/15 02:20:18;;;;;;;5.10;4.10;;;;;;;14.25;71.09;101220.34;5001698;28;20436;-69
2023/06/15 02:22:47;;;;;;;5.17;4.67;;;;;;;14.20;71.53;101211.97;5001714;28;20437;-69
2023/06/15 02:25:16;;;;;;;6.70;5.00;;;;;;;14.23;71.27;101208.81;4994028;28;20412;-69
2023/06/15 02:27:47;;;;;;;5.70;4.83;;;;;;;14.13;71.74;101215.81;4994328;28;20451;-68
2023/06/15 02:30:16;;;;;;;4.80;4.27;;;;;;;14.22;71.22;101211.78;4994544;28;20430;-70
2023/06/15 02:32:46;;;;;;;4.53;4.10;;;;;;;14.00;72.33;101213.13;4992585;28;20516;-69
2023/06/15 02:35:15;;;;;;;9.93;5.73;;;;;;;14.16;72.14;101212.63;4995287;28;20433;-69
2023/06/15 02:37:44;;;;;;;6.10;4.73;;;;;;;14.14;71.87;101210.13;4994200;28;20473;-69
2023/06/15 02:40:14;;;;;;;7.30;5.20;;;;;;;14.06;72.16;101213.09;4998141;28;20449;-68
2023/06/15 02:42:43;;;;;;;6.23;5.07;;;;;;;14.01;72.47;101215.66;4994052;28;20439;-69
2023/06/15 02:45:15;;;;;;;6.83;4.87;;;;;;;14.13;72.58;101216.66;4994317;28;20513;-68
2023/06/15 02:47:45;;;;;;;6.97;4.50;;;;;;;14.02;72.45;101211.88;4994111;28;20467;-69
2023/06/15 02:50:17;;;;;;;7.77;4.53;;;;;;;14.13;72.21;101208.47;5003336;28;20434;-69
2023/06/15 02:52:59;;;;;;;4.90;4.30;;;;;;;14.26;71.77;101204.84;4992602;28;20420;-69
2023/06/15 02:55:29;;;;;;;6.03;4.50;;;;;;;14.10;72.34;101206.19;4992433;28;20427;-69
2023/06/15 02:57:58;;;;;;;8.17;4.10;;;;;;;14.14;72.41;101210.13;4992394;28;20832;-69
2023/06/15 03:00:52;;;;;;;5.13;4.60;;;;;;;14.12;72.64;101214.97;4974947;28;20461;-70
2023/06/15 03:03:33;;;;;;;5.90;5.30;;;;;;;14.20;72.19;101211.16;4993789;28;20449;-70
2023/06/15 03:06:08;;;;;;;5.33;4.40;;;;;;;14.31;72.04;101216.75;5024785;28;20484;-69
2023/06/15 03:08:39;;;;;;;9.93;5.70;;;;;;;14.13;72.29;101224.81;4985498;28;20797;-71
2023/06/15 03:11:18;;;;;;;5.47;4.03;;;;;;;14.24;72.14;101221.38;4992496;28;20408;-68
2023/06/15 03:13:49;;;;;;;5.70;5.20;;;;;;;14.18;72.57;101211.38;4993091;28;20988;-67
2023/06/15 03:16:20;;;;;;;8.30;4.53;;;;;;;14.18;72.66;101216.81;4992914;28;20780;-69
2023/06/15 03:18:52;;;;;;;6.33;4.10;;;;;;;14.16;72.89;101221.63;4989597;28;20475;-69
2023/06/15 03:21:22;;;;;;;4.63;4.23;;;;;;;14.20;72.94;101220.16;4994732;28;20453;-69
2023/06/15 03:23:54;;;;;;;9.33;5.60;;;;;;;14.19;72.84;101217.63;4992742;28;20441;-69
2023/06/15 03:26:23;;;;;;;5.63;5.13;;;;;;;14.28;72.59;101233.50;4994147;28;20461;-69
2023/06/15 03:28:53;;;;;;;4.60;3.80;;;;;;;14.15;73.21;101219.97;4992699;28;20421;-69
2023/06/15 03:31:28;;;;;;;8.30;5.10;;;;;;;14.22;72.96;101222.66;4992594;28;20419;-69
2023/06/15 03:33:59;;;;;;;6.47;4.73;;;;;;;14.67;71.63;101226.16;5006431;28;20453;-69
2023/06/15 03:36:31;;;;;;;4.90;4.03;;;;;;;14.60;71.42;101230.81;4992282;28;20508;-68
2023/06/15 03:39:01;;;;;;;8.60;4.27;;;;;;;14.64;72.06;101226.59;4992028;28;20442;-68
2023/06/15 03:41:31;;;;;;;5.80;5.20;;;;;;;14.99;69.85;101225.06;4991845;28;20999;-70
2023/06/15 03:44:02;;;;;;;5.53;3.90;;;;;;;15.28;69.21;101222.69;5021589;28;20447;-69
2023/06/15 03:46:34;;;;;;;6.77;5.63;;;;;;;15.81;66.87;101229.28;4991456;28;20440;-68
2023/06/15 03:49:03;;;;;;;6.67;4.83;;;;;;;15.52;67.56;101230.88;4991989;28;20474;-68
2023/06/15 03:51:32;;;;;;;5.70;4.80;;;;;;;15.33;68.24;101236.50;4991952;28;20420;-68
2023/06/15 03:54:02;;;;;;;6.00;3.97;;;;;;;15.13;68.99;101223.88;5010176;28;20442;-68
2023/06/15 03:56:31;;;;;;;9.50;5.43;;;;;;;14.90;70.43;101231.03;4993178;28;20998;-66
2023/06/15 03:59:00;;;;;;;8.00;4.87;;;;;;;15.11;69.58;101228.72;4993087;28;20432;-67
2023/06/15 04:01:30;;;;;;;7.43;4.60;;;;;;;15.01;70.04;101224.81;4992473;28;20428;-69
2023/06/15 04:04:00;;;;;;;7.90;5.20;;;;;;;15.29;69.00;101221.63;4993255;28;20484;-68
2023/06/15 04:06:29;;;;;;;5.40;4.00;;;;;;;15.60;68.00;101225.09;4992915;28;20549;-69
2023/06/15 04:08:58;;;;;;;5.67;3.87;;;;;;;16.13;66.03;101220.88;4992936;28;20429;-69
2023/06/15 04:11:28;;;;;;;5.53;4.93;;;;;;;16.57;64.75;101217.69;4993005;28;20429;-68
2023/06/15 04:13:57;;;;;;;7.90;5.17;;;;;;;17.07;62.60;101215.44;4993006;28;20434;-69
2023/06/15 04:16:26;;;;;;;6.43;5.77;;;;;;;17.19;61.75;101215.44;4992987;28;20433;-69
2023/06/15 04:18:55;;;;;;;5.70;4.47;;;;;;;16.88;62.93;101224.81;4992776;28;20430;-69
2023/06/15 04:21:26;;;;;;;5.77;4.57;;;;;;;16.65;63.20;101225.63;5002258;28;20459;-69
2023/06/15 04:23:56;;;;;;;5.97;4.90;;;;;;;16.25;64.72;101219.88;4991329;28;20428;-68
2023/06/15 04:26:26;;;;;;;5.10;4.40;;;;;;;16.07;65.66;101220.72;4989891;28;20975;-69
2023/06/15 04:28:58;;;;;;;5.10;4.53;;;;;;;16.20;65.42;101229.81;4991180;28;20413;-68
2023/06/15 04:31:30;;;;;;;6.97;5.17;;;;;;;16.27;65.15;101233.28;5007711;28;20430;-68
2023/06/15 04:34:00;;;;;;;10.57;4.67;;;;;;;15.81;66.90;101229.28;4992122;28;20402;-67
2023/06/15 04:36:34;;;;;;;6.20;4.60;;;;;;;15.59;68.01;101233.50;4992263;28;20448;-68
2023/06/15 04:39:05;;;;;;;6.37;5.77;;;;;;;15.72;67.86;101232.53;4991529;28;20523;-68
2023/06/15 04:41:35;;;;;;;5.43;4.77;;;;;;;15.87;67.26;101231.09;5022172;28;20494;-69
2023/06/15 04:44:06;;;;;;;8.10;5.13;;;;;;;16.60;64.74;101232.84;5023773;28;20416;-69
2023/06/15 04:46:40;;;;;;;4.93;4.50;;;;;;;17.06;63.11;101232.91;4987734;28;20440;-69
2023/06/15 04:49:10;;;;;;;5.70;4.77;;;;;;;17.59;61.13;101238.28;5005887;28;20425;-68
2023/06/15 04:51:40;;;;;;;5.57;4.97;;;;;;;17.44;61.02;101234.34;4991167;28;20416;-70
2023/06/15 04:54:10;;;;;;;5.70;5.17;;;;;;;17.57;61.04;101234.91;4991251;28;20446;-69
2023/06/15 04:56:40;;;;;;;5.87;5.33;;;;;;;18.74;57.98;101229.88;4993112;28;20970;-68
2023/06/15 04:59:10;;;;;;;5.50;5.00;;;;;;;18.55;57.59;101234.78;4994588;28;20566;-67
2023/06/15 05:01:41;;;;;;;11.13;5.10;;;;;;;18.52;57.14;101232.50;4995900;28;20463;-69
2023/06/15 05:04:22;;;;;;;7.43;4.50;;;;;;;19.09;56.47;101240.63;4994912;28;20446;-69
2023/06/15 05:06:53;;;;;;;6.43;5.30;;;;;;;18.69;57.04;101242.69;5027694;28;20461;-69
2023/06/15 05:09:23;;;;;;;8.00;4.23;;;;;;;18.31;58.40;101244.16;5013555;28;20438;-69
2023/06/15 05:11:53;;;;;;;5.90;4.87;;;;;;;18.67;57.56;101238.28;4998774;28;20416;-68
2023/06/15 05:14:23;;;;;;;4.90;4.40;;;;;;;18.33;58.52;101243.91;5003001;28;20430;-69
2023/06/15 05:16:52;;;;;;;6.77;5.43;;;;;;;19.03;56.32;101244.34;4995716;28;20854;-69
2023/06/15 05:19:21;;;;;;;5.10;4.70;;;;;;;19.48;55.47;101245.09;4997046;28;20640;-69
2023/06/15 05:21:58;;;;;;;4.97;4.33;;;;;;;20.19;53.64;101240.53;4994833;28;20489;-68
2023/06/15 05:24:27;;;;;;;6.80;4.97;;;;;;;20.39;52.11;101243.53;4991867;28;20429;-70
2023/06/15 05:26:57;;;;;;;4.93;4.43;;;;;;;19.48;54.64;101247.84;4995845;28;20876;-68
2023/06/15 05:29:26;;;;;;;6.50;4.00;;;;;;;18.88;56.76;101247.69;4994223;28;20441;-69
2023/06/15 05:31:56;;;;;;;5.77;4.20;;;;;;;19.22;56.21;101253.19;4995724;28;20966;-69
2023/06/15 05:34:28;;;;;;;5.77;5.00;;;;;;;19.57;55.88;101255.66;4993236;28;20424;-69
2023/06/15 05:36:58;;;;;;;7.03;4.60;;;;;;;19.12;56.09;101251.13;4989728;28;20437;-68
2023/06/15 05:39:32;;;;;;;6.47;4.60;;;;;;;18.00;59.55;101248.22;4994035;28;20412;-69
2023/06/15 05:42:03;;;;;;;4.87;3.50;;;;;;;17.69;60.53;101245.88;4994218;28;20470;-69
2023/06/15 05:44:32;;;;;;;5.47;4.57;;;;;;;17.15;63.07;101247.06;4991417;28;20475;-67
2023/06/15 05:47:03;;;;;;;3.80;3.50;;;;;;;16.95;63.50;101247.41;4994282;28;20424;-68
2023/06/15 05:49:33;;;;;;;6.90;4.57;;;;;;;17.03;63.64;101254.44;5018784;28;20467;-67
2023/06/15 05:52:04;;;;;;;9.23;5.80;;;;;;;17.25;63.70;101260.97;4993054;28;20440;-68
2023/06/15 05:54:35;;;;;;;4.80;3.73;;;;;;;17.31;62.91;101262.78;4993172;28;20772;-68
2023/06/15 05:57:05;;;;;;;10.00;4.90;;;;;;;17.02;63.88;101269.16;4985645;28;20464;-68
2023/06/15 05:59:34;;;;;;;7.33;5.00;;;;;;;17.15;63.83;101268.94;4993082;28;20420;-69
2023/06/15 06:02:05;;;;;;;7.20;4.20;;;;;;;17.24;63.75;101264.78;4990713;28;20475;-68
2023/06/15 06:04:37;;;;;;;4.70;4.23;;;;;;;17.38;62.89;101268.94;5010132;28;20412;-69
2023/06/15 06:07:08;;;;;;;6.73;4.13;;;;;;;17.06;64.11;101270.34;4996933;28;20468;-69
2023/06/15 06:09:38;;;;;;;12.60;5.07;;;;;;;17.23;63.41;101271.34;4996156;28;21063;-69
2023/06/15 06:12:09;;;;;;;8.23;4.53;;;;;;;17.07;63.91;101264.66;4995815;28;20451;-69
2023/06/15 06:14:39;;;;;;;7.83;5.37;;;;;;;16.76;64.88;101267.69;4993964;28;20420;-69
2023/06/15 06:17:09;;;;;;;10.40;5.27;;;;;;;16.95;64.51;101270.09;4995281;28;20462;-69
2023/06/15 06:19:42;;;;;;;6.90;5.20;;;;;;;17.05;63.84;101263.22;4996919;28;20424;-70
2023/06/15 06:22:13;;;;;;;5.63;4.87;;;;;;;16.82;64.54;101269.50;4995466;28;20532;-71
2023/06/15 06:24:51;;;;;;;5.43;4.07;;;;;;;17.21;63.44;101262.53;4993108;28;20459;-70
2023/06/15 06:27:20;;;;;;;7.20;5.13;;;;;;;17.17;63.64;101262.19;4993479;28;20467;-70
2023/06/15 06:29:49;;;;;;;4.47;3.73;;;;;;;17.28;63.04;101263.25;4993847;28;20484;-67
2023/06/15 06:32:22;;;;;;;6.73;5.10;;;;;;;17.21;63.48;101268.84;4994104;28;20544;-69
2023/06/15 06:34:51;;;;;;;7.33;4.13;;;;;;;16.99;63.80;101264.19;4993554;28;20438;-69
2023/06/15 06:37:24;;;;;;;5.43;4.80;;;;;;;17.33;63.23;101266.91;4994116;28;20446;-70
2023/06/15 06:39:53;;;;;;;4.83;4.27;;;;;;;17.58;62.65;101269.41;4992055;28;20401;-69
2023/06/15 06:42:23;;;;;;;6.40;4.67;;;;;;;17.95;61.55;101263.69;4994303;28;20452;-70
2023/06/15 06:44:52;;;;;;;5.03;4.50;;;;;;;18.21;60.33;101268.59;4993253;28;20420;-70
2023/06/15 06:47:21;;;;;;;5.53;4.50;;;;;;;18.42;59.23;101267.94;4989005;28;20448;-69
2023/06/15 06:49:51;;;;;;;5.70;4.33;;;;;;;18.37;59.56;101262.34;4994691;28;20430;-69
2023/06/15 06:52:22;;;;;;;5.17;4.60;;;;;;;18.89;58.02;101267.72;4994313;28;20508;-66
2023/06/15 06:54:51;;;;;;;8.73;4.40;;;;;;;18.64;58.54;101268.91;4992220;28;20489;-67
2023/06/15 06:57:20;;;;;;;5.63;4.73;;;;;;;18.36;58.94;101266.16;4993637;28;20412;-68
2023/06/15 07:00:10;;;;;;;10.13;4.60;;;;;;;18.87;57.74;101267.16;4993931;28;20412;-69
2023/06/15 07:02:39;;;;;;;5.27;4.77;;;;;;;19.11;57.24;101265.91;4989701;28;20443;-68
2023/06/15 07:05:09;;;;;;;6.00;4.70;;;;;;;19.10;56.85;101266.97;4993036;28;20430;-68
2023/06/15 07:07:39;;;;;;;7.73;4.37;;;;;;;19.47;56.27;101265.41;4993548;28;20431;-69
2023/06/15 07:10:10;;;;;;;8.40;5.30;;;;;;;19.85;55.07;101255.47;4991846;28;20405;-68
2023/06/15 07:12:40;;;;;;;6.23;5.60;;;;;;;19.85;54.94;101261.81;4993977;28;20512;-70
2023/06/15 07:15:09;;;;;;;9.23;5.00;;;;;;;20.02;54.83;101259.00;4993601;28;20415;-69
2023/06/15 07:17:38;;;;;;;14.17;6.00;;;;;;;19.98;54.73;101260.63;4993650;28;20450;-68
2023/06/15 07:20:09;;;;;;;8.17;4.40;;;;;;;19.59;55.66;101264.47;4993042;28;20412;-68
2023/06/15 07:22:39;;;;;;;8.00;4.30;;;;;;;19.37;56.24;101261.63;4993380;28;20515;-69
2023/06/15 07:25:09;;;;;;;12.60;6.20;;;;;;;19.22;57.25;101264.16;4993624;28;20500;-69
2023/06/15 07:27:38;;;;;;;5.87;3.93;;;;;;;19.06;57.36;101260.34;4993728;28;20956;-69
2023/06/15 07:30:09;;;;;;;10.63;6.57;;;;;;;19.33;57.06;101261.31;4993878;28;20442;-69
2023/06/15 07:32:38;;;;;;;9.43;5.23;;;;;;;19.55;56.41;101264.16;4994214;28;20407;-68
2023/06/15 07:35:07;;;;;;;7.40;5.23;;;;;;;19.29;56.95;101259.31;4993782;28;20600;-69
2023/06/15 07:37:38;;;;;;;7.73;5.20;;;;;;;19.44;56.61;101257.69;4994862;28;20448;-70
2023/06/15 07:40:08;;;;;;;5.00;4.53;;;;;;;19.60;56.08;101257.91;4993535;28;20488;-70
2023/06/15 07:42:37;;;;;;;6.77;5.60;;;;;;;19.43;56.42;101250.50;4993431;28;20411;-69
2023/06/15 07:45:08;;;;;;;7.17;5.00;;;;;;;19.27;56.98;101262.31;4993886;28;20518;-69
2023/06/15 07:47:37;;;;;;;5.80;5.13;;;;;;;19.33;56.31;101255.81;4993296;28;20436;-70
2023/06/15 07:50:08;;;;;;;7.23;5.57;;;;;;;19.36;57.25;101260.00;4993255;28;20783;-70
2023/06/15 07:52:39;;;;;;;18.80;5.80;;;;;;;19.76;56.77;101259.75;4993893;28;20437;-70
2023/06/15 07:55:08;;;;;;;9.87;5.10;;;;;;;20.24;55.00;101257.06;4991590;28;20505;-69
2023/06/15 07:57:38;;;;;;;6.40;5.40;;;;;;;20.41;54.45;101262.53;4993008;28;21009;-69
2023/06/15 08:00:08;;;;;;;6.60;5.57;;;;;;;20.44;54.52;101261.16;4991728;28;20401;-69
2023/06/15 08:02:38;;;;;;;5.70;5.10;;;;;;;20.55;53.82;101257.44;4993016;28;20442;-69
2023/06/15 08:05:08;;;;;;;7.03;4.20;;;;;;;20.68;53.23;101254.25;4992352;28;20487;-69
2023/06/15 08:07:42;;;;;;;6.10;4.87;;;;;;;20.57;53.58;101255.28;4996704;28;20471;-68
2023/06/15 08:10:12;;;;;;;6.07;5.03;;;;;;;20.85;53.39;101251.41;4999386;28;20420;-71
2023/06/15 08:12:41;;;;;;;6.00;5.40;;;;;;;21.09;52.39;101253.53;4997633;28;20400;-69
2023/06/15 08:15:12;;;;;;;8.33;5.47;;;;;;;21.49;51.60;101247.53;4993555;28;20408;-69
2023/06/15 08:17:41;;;;;;;6.43;5.63;;;;;;;21.32;51.47;101241.34;4989480;28;20427;-68
2023/06/15 08:20:12;;;;;;;6.80;5.20;;;;;;;21.13;51.97;101249.19;4992631;28;20414;-70
2023/06/15 08:22:42;;;;;;;7.40;5.83;;;;;;;21.37;51.17;101244.13;4990340;28;20413;-68
2023/06/15 08:25:12;;;;;;;6.13;5.47;;;;;;;21.87;50.10;101245.53;4992181;28;20438;-70
2023/06/15 08:27:42;;;;;;;7.43;5.00;;;;;;;22.24;49.47;101242.66;4992697;28;20457;-68
2023/06/15 08:30:12;;;;;;;5.63;5.13;;;;;;;21.80;50.21;101243.00;4992305;28;20412;-68
2023/06/15 08:32:42;;;;;;;5.93;5.00;;;;;;;22.32;49.23;101242.94;4995685;28;20770;-68
2023/06/15 08:35:11;;;;;;;7.50;6.10;;;;;;;22.52;48.39;101244.94;4995747;28;20903;-69
2023/06/15 08:37:41;;;;;;;5.80;5.20;;;;;;;22.74;47.67;101248.31;4995812;28;20507;-69
2023/06/15 08:40:12;;;;;;;7.13;6.33;;;;;;;22.89;48.02;101241.97;5025715;28;21073;-70
2023/06/15 08:42:42;;;;;;;8.37;6.43;;;;;;;22.45;48.22;101238.88;4996004;28;20437;-69
2023/06/15 08:45:12;;;;;;;7.73;6.90;;;;;;;22.75;48.40;101238.91;4995870;28;20439;-70
2023/06/15 08:47:43;;;;;;;6.37;5.60;;;;;;;22.96;47.11;101235.06;4992845;28;20453;-68
2023/06/15 08:50:12;;;;;;;10.30;5.77;;;;;;;23.25;46.77;101237.25;4996508;28;20426;-69
2023/06/15 08:52:46;;;;;;;11.20;6.17;;;;;;;23.35;47.17;101234.47;5010860;28;20404;-68
2023/06/15 08:55:17;;;;;;;7.10;6.03;;;;;;;23.67;45.78;101234.97;4994986;28;20434;-69
2023/06/15 08:57:46;;;;;;;6.67;5.97;;;;;;;23.77;45.88;101228.59;4994441;28;20544;-69
2023/06/15 09:00:41;;;;;;;8.23;5.37;;;;;;;24.02;43.34;101235.94;4992030;28;20426;-69
2023/06/15 09:03:13;;;;;;;6.30;5.70;;;;;;;23.94;44.49;101233.78;4995030;28;20963;-69
2023/06/15 09:05:46;;;;;;;7.63;6.37;;;;;;;24.22;44.32;101246.94;4993890;28;20465;-69
2023/06/15 09:08:17;;;;;;;6.70;6.00;;;;;;;24.24;44.02;101244.75;4996047;28;20488;-69
2023/06/15 09:10:46;;;;;;;9.90;6.30;;;;;;;24.16;44.08;101239.75;4995472;28;20430;-68
2023/06/15 09:13:17;;;;;;;7.90;5.93;;;;;;;24.51;43.01;101236.81;4992685;28;20452;-68
2023/06/15 09:15:58;;;;;;;7.63;6.93;;;;;;;24.48;43.59;101233.81;4995528;28;20457;-69
2023/06/15 09:18:28;;;;;;;7.93;5.93;;;;;;;24.77;42.40;101231.94;4995645;28;20442;-68
2023/06/15 09:20:59;;;;;;;7.77;5.30;;;;;;;24.27;43.87;101233.09;4994928;28;20933;-69
2023/06/15 09:23:34;;;;;;;8.50;6.70;;;;;;;24.32;43.71;101233.06;5023515;28;20546;-68
2023/06/15 09:26:03;;;;;;;9.00;5.50;;;;;;;24.46;43.71;101245.16;4989496;28;20428;-68
2023/06/15 09:28:33;;;;;;;7.43;5.67;;;;;;;23.41;45.76;101247.19;4995006;28;20429;-68
2023/06/15 09:31:02;;;;;;;7.73;5.60;;;;;;;23.48;45.87;101247.75;4995048;28;20426;-68
2023/06/15 09:33:33;;;;;;;7.50;5.33;;;;;;;23.50;45.61;101240.00;4994949;28;20430;-71
2023/06/15 09:36:03;;;;;;;6.50;5.20;;;;;;;23.24;45.67;101246.63;4995290;28;20552;-68
2023/06/15 09:38:40;;;;;;;6.97;6.30;;;;;;;23.10;44.13;101242.78;4991542;28;20454;-69
2023/06/15 09:41:09;;;;;;;6.73;5.90;;;;;;;23.26;44.41;101241.69;4994493;28;20726;-68
2023/06/15 09:43:43;;;;;;;6.67;6.17;;;;;;;23.21;42.97;101236.16;4992653;28;20444;-67
2023/06/15 09:46:15;;;;;;;6.00;5.50;;;;;;;23.16;42.80;101234.22;4994010;28;20511;-67
2023/06/15 09:48:46;;;;;;;8.10;6.40;;;;;;;23.27;43.55;101235.06;4990589;28;20441;-68
2023/06/15 09:51:16;;;;;;;10.07;6.17;;;;;;;23.51;43.21;101233.38;4993316;28;20512;-68
2023/06/15 09:53:51;;;;;;;7.27;5.33;;;;;;;23.15;43.37;101238.09;4991232;28;20488;-69
2023/06/15 09:56:21;;;;;;;6.93;6.27;;;;;;;23.14;43.76;101230.91;4993705;28;20460;-69
2023/06/15 09:59:02;;;;;;;6.93;6.20;;;;;;;22.82;44.02;101230.38;4991484;28;20937;-69
2023/06/15 10:01:36;;;;;;;9.30;6.60;;;;;;;22.49;44.82;101234.44;4995156;28;20489;-69
2023/06/15 10:04:06;;;;;;;7.00;6.40;;;;;;;22.89;44.67;101240.06;4998919;28;20512;-69
2023/06/15 10:07:13;;;;;;;7.97;6.07;;;;;;;22.89;44.63;101234.53;4995122;28;21022;-69
2023/06/15 10:09:48;;;;;;;6.73;6.03;;;;;;;22.66;44.83;101235.00;4997001;28;20430;-67
2023/06/15 10:12:18;;;;;;;13.43;6.73;;;;;;;22.63;45.32;101232.81;4996797;28;20432;-68
2023/06/15 10:14:53;;;;;;;6.20;5.60;;;;;;;22.61;45.43;101234.22;4995176;28;20821;-68
2023/06/15 10:17:30;;;;;;;10.50;6.57;;;;;;;22.72;44.93;101236.72;4994959;28;20457;-69
2023/06/15 10:20:07;;;;;;;10.00;5.60;;;;;;;23.08;42.40;101231.22;4994674;28;20512;-69
2023/06/15 10:22:45;;;;;;;6.13;5.53;;;;;;;22.82;42.09;101239.47;4989766;28;20400;-69
2023/06/15 10:25:18;;;;;;;8.73;6.33;;;;;;;22.42;42.53;101239.38;4993093;28;20436;-70
2023/06/15 10:27:48;;;;;;;5.97;5.37;;;;;;;22.38;41.59;101244.63;4994462;28;20852;-68
2023/06/15 10:30:26;;;;;;;8.30;5.87;;;;;;;22.53;41.70;101246.59;4993443;28;20431;-68
2023/06/15 10:33:00;;;;;;;9.90;5.50;;;;;;;22.42;41.70;101240.22;4994706;28;20792;-68
2023/06/15 10:35:33;;;;;;;4.80;4.37;;;;;;;22.28;42.68;101244.59;4987268;28;20460;-68
2023/06/15 10:38:16;;;;;;;5.13;4.73;;;;;;;22.13;43.34;101243.72;4994099;28;20450;-67
2023/06/15 10:40:49;;;;;;;5.80;5.20;;;;;;;22.28;43.02;101236.31;4994567;28;20437;-68
2023/06/15 10:43:19;;;;;;;5.53;5.00;;;;;;;22.15;43.76;101236.00;4992422;28;20446;-68
2023/06/15 10:45:48;;;;;;;5.37;4.77;;;;;;;21.92;44.37;101238.13;4991282;28;20477;-68
2023/06/15 10:48:26;;;;;;;5.60;5.10;;;;;;;21.80;43.15;101232.00;4993116;28;20529;-68
2023/06/15 10:51:04;;;;;;;5.77;5.10;;;;;;;21.78;42.64;101234.19;4993031;28;20433;-68
2023/06/15 10:53:38;;;;;;;6.27;5.37;;;;;;;21.91;42.75;101230.94;4988249;28;20444;-69
2023/06/15 10:56:16;;;;;;;7.50;5.00;;;;;;;22.17;42.53;101233.81;4994217;28;20449;-67
2023/06/15 10:58:56;;;;;;;4.57;4.17;;;;;;;22.03;42.44;101234.31;4994134;28;20418;-68
2023/06/15 11:01:27;;;;;;;4.27;3.87;;;;;;;21.88;43.01;101231.47;4987712;28;20397;-68
2023/06/15 11:03:57;;;;;;;8.57;5.30;;;;;;;21.83;42.95;101231.47;4994211;28;20452;-67
2023/06/15 11:06:32;;;;;;;5.07;3.90;;;;;;;21.84;43.13;101230.34;5020939;28;20543;-68
2023/06/15 11:09:06;;;;;;;7.43;5.90;;;;;;;21.82;43.67;101229.81;4993806;28;20437;-67
2023/06/15 11:11:38;;;;;;;9.10;4.70;;;;;;;22.08;43.10;101228.00;4992711;28;20450;-68
2023/06/15 11:14:21;;;;;;;5.33;4.83;;;;;;;22.22;43.72;101225.56;4993638;28;20429;-68
2023/06/15 11:17:03;;;;;;;6.30;4.97;;;;;;;22.24;43.35;101226.13;4993656;28;20453;-69
2023/06/15 11:19:35;;;;;;;5.80;4.90;;;;;;;22.21;42.98;101221.16;4988128;28;20640;-68
2023/06/15 11:22:06;;;;;;;8.27;5.50;;;;;;;22.66;42.33;101223.97;4993380;28;20433;-68
2023/06/15 11:24:37;;;;;;;15.67;5.97;;;;;;;22.78;42.51;101221.00;4993612;28;20411;-69
2023/06/15 11:27:09;;;;;;;5.23;4.50;;;;;;;22.60;42.56;101221.50;4992028;28;20508;-69
2023/06/15 11:29:41;;;;;;;7.03;4.70;;;;;;;23.05;42.05;101224.28;4993343;28;20453;-68
2023/06/15 11:32:11;;;;;;;6.60;4.33;;;;;;;23.07;41.87;101218.50;4993042;28;20470;-68
2023/06/15 11:34:41;;;;;;;6.40;4.63;;;;;;;23.28;41.48;101214.63;4993427;28;20442;-69
2023/06/15 11:37:12;;;;;;;7.57;6.50;;;;;;;23.20;41.45;101204.13;5029664;23;21029;-69
2023/06/15 11:39:46;;;;;;;8.20;5.40;;;;;;;23.08;41.21;101206.38;4981324;28;20458;-70
2023/06/15 11:42:17;;;;;;;8.80;4.30;;;;;;;22.56;41.30;101207.41;4985485;28;20437;-70
2023/06/15 11:44:50;;;;;;;7.07;5.00;;;;;;;22.33;41.45;101197.75;4986289;28;20449;-68